Terminal Aerodrome Forecast
Issued by NWS

Home | Current Version | Previous Version | Text Only | Print | Product List | Glossary On
Versions: 1 2 3 4 5 6 7 8 9 10 11 12 13 14 15 16 17 18
429
FTUS45 KABQ 272339
TAFTCC
TAF
KTCC 272339Z 2800/2824 29018G28KT P6SM BKN120
      TEMPO 2800/2802 29028G38KT
     FM280200 34015G25KT P6SM BKN100
     FM280500 30009KT P6SM SCT120
     FM281600 26015G25KT P6SM BKN120
     FM282000 27017G27KT P6SM VCSH SCT035 BKN060=

USA.gov is the U.S. government's official web portal to all federal, state and local government web resources and services.